Time;durP1;ratioP1;P1;durP2;ratioP2;P2;SDS_P1;SDS_P2;PMS_P1;PMS_P2;Temp;Humidity;BMP_temperature;BMP_pressure;BME280_temperature;BME280_humidity;BME280_pressure;Samples;Min_cycle;Max_cycle;Signal;HPM_P1;HPM_P2
2022/02/12 00:00:13;;;;;;;20.52;7.10;;;;;;;7.67;100.00;103213.22;5042632;28;20127;-51
2022/02/12 00:02:39;;;;;;;33.53;8.65;;;;;;;7.54;100.00;103205.31;5044797;28;20043;-51
2022/02/12 00:05:06;;;;;;;23.52;7.50;;;;;;;7.49;100.00;103204.81;5035059;28;20051;-52
2022/02/12 00:07:31;;;;;;;32.60;8.85;;;;;;;7.54;100.00;103210.63;5048190;28;20056;-49
2022/02/12 00:09:57;;;;;;;34.05;8.77;;;;;;;7.53;100.00;103214.25;5039019;28;20033;-51
2022/02/12 00:12:22;;;;;;;21.47;8.47;;;;;;;7.57;100.00;103206.91;5040542;28;20037;-54
2022/02/12 00:14:49;;;;;;;;;;;;;;;7.69;100.00;103213.09;5046563;28;20033;-53
2022/02/12 00:17:15;;;;;;;25.47;10.23;;;;;;;7.74;100.00;103208.25;5034928;28;19924;-53
2022/02/12 00:19:40;;;;;;;31.60;9.17;;;;;;;7.72;100.00;103210.19;5055848;28;20036;-49
2022/02/12 00:22:05;;;;;;;20.07;7.00;;;;;;;7.89;100.00;103217.75;5047376;28;20030;-52
2022/02/12 00:24:31;;;;;;;19.97;8.77;;;;;;;7.97;100.00;103202.97;5047558;28;20032;-48
2022/02/12 00:26:56;;;;;;;31.73;9.75;;;;;;;7.96;100.00;103202.13;5055200;28;20087;-51
2022/02/12 00:29:21;;;;;;;20.93;8.40;;;;;;;8.06;100.00;103202.22;5021092;28;20041;-52
2022/02/12 00:31:47;;;;;;;30.90;8.77;;;;;;;8.09;100.00;103203.81;5049677;28;20037;-52
2022/02/12 00:34:12;;;;;;;22.67;8.97;;;;;;;7.97;100.00;103194.97;5044550;28;20037;-52
2022/02/12 00:36:38;;;;;;;31.00;9.33;;;;;;;7.99;100.00;103193.03;5043000;28;20041;-52
2022/02/12 00:39:04;;;;;;;28.97;8.80;;;;;;;7.92;100.00;103191.81;5051702;28;20041;-50
2022/02/12 00:41:30;;;;;;;24.48;7.75;;;;;;;7.78;100.00;103193.72;5038229;28;20036;-50
2022/02/12 00:43:55;;;;;;;27.42;9.32;;;;;;;7.67;100.00;103183.91;5048347;28;20025;-51
2022/02/12 00:46:20;;;;;;;22.33;10.17;;;;;;;7.53;100.00;103182.31;5045493;28;20131;-51
2022/02/12 00:48:46;;;;;;;26.80;8.60;;;;;;;7.46;100.00;103173.94;5041675;28;20095;-54
2022/02/12 00:51:13;;;;;;;28.87;9.03;;;;;;;7.34;100.00;103174.88;5051794;28;20071;-54
2022/02/12 00:53:40;;;;;;;22.05;8.25;;;;;;;7.23;100.00;103165.03;5039546;28;20482;-51
2022/02/12 00:56:05;;;;;;;31.33;9.95;;;;;;;7.14;100.00;103176.38;5046521;28;20067;-49
2022/02/12 00:58:31;;;;;;;23.47;8.67;;;;;;;7.19;100.00;103176.91;5028934;28;20128;-53
2022/02/12 01:00:56;;;;;;;21.43;8.23;;;;;;;7.25;100.00;103163.13;5054899;28;20273;-49
2022/02/12 01:03:21;;;;;;;22.00;8.40;;;;;;;7.26;100.00;103169.28;5038153;28;20036;-52
2022/02/12 01:05:47;;;;;;;30.40;8.35;;;;;;;7.23;100.00;103167.72;5049008;28;20037;-54
2022/02/12 01:08:13;;;;;;;21.92;8.05;;;;;;;7.08;100.00;103158.22;5044021;28;20107;-55
2022/02/12 01:10:38;;;;;;;28.77;8.63;;;;;;;7.12;100.00;103168.50;5041490;28;20120;-54
2022/02/12 01:13:04;;;;;;;17.43;7.87;;;;;;;7.20;100.00;103159.97;5050811;28;20125;-53
2022/02/12 01:15:31;;;;;;;25.07;11.67;;;;;;;6.96;100.00;103159.97;5038941;28;20112;-53
2022/02/12 01:17:57;;;;;;;21.30;9.10;;;;;;;7.00;100.00;103154.31;5043258;28;20049;-53
2022/02/12 01:20:22;;;;;;;26.17;8.33;;;;;;;6.88;100.00;103156.09;5044638;28;20041;-51
2022/02/12 01:22:49;;;;;;;27.47;8.17;;;;;;;6.86;100.00;103150.03;5051377;28;20304;-54
2022/02/12 01:25:15;;;;;;;24.02;8.10;;;;;;;6.69;100.00;103156.59;5047188;28;20052;-50
2022/02/12 01:27:40;;;;;;;33.17;8.27;;;;;;;6.34;100.00;103149.34;5041183;28;20090;-49
2022/02/12 01:30:07;;;;;;;17.90;6.73;;;;;;;6.60;100.00;103157.25;5054630;28;20037;-48
2022/02/12 01:32:33;;;;;;;26.10;6.93;;;;;;;6.78;100.00;103154.22;5054347;28;20041;-48
2022/02/12 01:34:58;;;;;;;17.33;7.60;;;;;;;6.75;100.00;103149.97;5054055;28;20029;-49
2022/02/12 01:37:24;;;;;;;23.20;9.80;;;;;;;6.76;100.00;103149.00;5037870;28;20124;-48
2022/02/12 01:39:50;;;;;;;18.75;8.32;;;;;;;6.81;100.00;103151.31;5048496;28;20022;-51
2022/02/12 01:42:16;;;;;;;22.17;6.72;;;;;;;6.92;100.00;103148.72;5043457;28;20029;-51
2022/02/12 01:44:42;;;;;;;22.80;7.57;;;;;;;6.52;100.00;103146.34;5041520;28;20057;-50
2022/02/12 01:47:09;;;;;;;21.20;7.50;;;;;;;6.43;100.00;103143.38;5050458;28;20075;-52
2022/02/12 01:49:36;;;;;;;17.73;6.78;;;;;;;6.50;100.00;103146.44;5054027;28;20039;-52
2022/02/12 01:52:05;;;;;;;27.52;7.78;;;;;;;6.57;100.00;103147.72;5047000;28;20045;-52
2022/02/12 01:54:31;;;;;;;26.77;8.02;;;;;;;6.53;100.00;103142.72;5045261;28;20032;-52
2022/02/12 01:56:59;;;;;;;25.42;8.05;;;;;;;6.36;100.00;103142.13;5039353;28;20036;-50
2022/02/12 01:59:25;;;;;;;18.20;7.85;;;;;;;6.39;100.00;103143.72;5050201;28;20036;-49
2022/02/12 02:01:51;;;;;;;22.33;7.28;;;;;;;6.31;100.00;103138.94;5021603;28;20029;-53
2022/02/12 02:04:17;;;;;;;24.90;7.32;;;;;;;6.19;100.00;103134.50;5044605;28;20117;-54
2022/02/12 02:06:44;;;;;;;19.67;8.25;;;;;;;6.13;100.00;103131.34;5046707;28;20516;-51
2022/02/12 02:09:13;;;;;;;25.55;8.23;;;;;;;6.49;100.00;103126.13;5037027;28;20029;-52
2022/02/12 02:11:40;;;;;;;22.50;7.18;;;;;;;6.54;100.00;103112.50;5049794;28;20037;-51
2022/02/12 02:14:06;;;;;;;31.37;7.50;;;;;;;6.50;100.00;103103.91;5041101;28;20041;-52
2022/02/12 02:16:31;;;;;;;17.73;6.20;;;;;;;6.21;100.00;103112.19;5042097;28;20060;-51
2022/02/12 02:18:57;;;;;;;22.50;7.53;;;;;;;6.36;100.00;103106.75;5048240;28;20124;-52
2022/02/12 02:21:26;;;;;;;23.42;8.45;;;;;;;6.50;100.00;103105.72;5036670;28;20049;-50
2022/02/12 02:23:53;;;;;;;22.83;7.00;;;;;;;6.46;100.00;103099.78;5047651;28;20029;-49
2022/02/12 02:26:19;;;;;;;23.75;7.70;;;;;;;6.33;100.00;103105.13;5042643;28;20033;-48
2022/02/12 02:28:46;;;;;;;23.20;7.68;;;;;;;6.29;100.00;103103.66;5040439;28;20121;-49
2022/02/12 02:31:13;;;;;;;23.02;7.40;;;;;;;6.21;100.00;103100.69;5049747;28;20033;-51
2022/02/12 02:33:38;;;;;;;23.83;7.13;;;;;;;6.00;100.00;103095.97;5036969;28;20090;-52
2022/02/12 02:36:04;;;;;;;20.47;6.43;;;;;;;6.17;100.00;103090.28;5045720;28;20285;-55
2022/02/12 02:38:31;;;;;;;24.90;7.38;;;;;;;6.32;100.00;103088.31;5044009;28;20459;-49
2022/02/12 02:40:57;;;;;;;18.13;6.43;;;;;;;6.19;100.00;103084.88;5037505;28;20128;-51
2022/02/12 02:43:24;;;;;;;15.38;6.25;;;;;;;6.34;100.00;103082.06;5049660;28;20110;-52
2022/02/12 02:45:50;;;;;;;37.97;8.80;;;;;;;6.19;100.00;103086.69;5038124;28;20040;-49
2022/02/12 02:48:16;;;;;;;24.10;7.07;;;;;;;6.25;100.00;103079.13;5044076;28;20091;-53
2022/02/12 02:56:12;;;;;;;23.00;6.60;;;;;;;5.87;100.00;103062.28;5044458;28;20084;-50
2022/02/12 02:58:45;;;;;;;24.30;6.50;;;;;;;5.57;100.00;103067.94;5044609;28;20033;-53
2022/02/12 03:01:15;;;;;;;26.08;7.32;;;;;;;5.80;100.00;103063.69;5036528;28;20061;-54
2022/02/12 03:03:42;;;;;;;19.13;6.22;;;;;;;5.96;100.00;103057.28;5036730;28;20032;-51
2022/02/12 03:06:08;;;;;;;24.00;6.57;;;;;;;6.32;100.00;103047.63;5052749;28;20037;-54
2022/02/12 03:08:34;;;;;;;;;;;;;;;6.00;100.00;103050.81;5041814;28;20061;-54
2022/02/12 03:11:00;;;;;;;29.20;7.13;;;;;;;5.88;100.00;103037.44;5047336;28;19971;-53
2022/02/12 03:13:25;;;;;;;28.05;7.63;;;;;;;5.87;100.00;103046.34;5035783;28;20057;-54
2022/02/12 03:15:51;;;;;;;27.73;7.82;;;;;;;5.91;100.00;103038.16;5047006;28;20044;-49
2022/02/12 03:18:16;;;;;;;31.63;8.20;;;;;;;5.84;100.00;103033.31;5041041;28;20040;-51
2022/02/12 03:20:42;;;;;;;35.97;8.77;;;;;;;6.21;100.00;103034.25;5040226;28;20344;-55
2022/02/12 03:23:07;;;;;;;22.50;8.07;;;;;;;6.08;100.00;103029.88;5048130;28;20033;-51
2022/02/12 03:25:33;;;;;;;23.98;6.68;;;;;;;6.12;100.00;103033.16;5035467;28;20413;-52
2022/02/12 03:28:02;;;;;;;23.43;6.87;;;;;;;5.68;100.00;103032.69;5045989;28;20044;-51
2022/02/12 03:30:29;;;;;;;23.25;8.02;;;;;;;5.55;100.00;103019.44;5042385;28;20334;-50
2022/02/12 03:32:55;;;;;;;18.23;7.03;;;;;;;5.68;100.00;103020.28;5037998;28;20094;-54
2022/02/12 03:35:22;;;;;;;28.47;10.70;;;;;;;5.91;100.00;103020.44;5048585;28;20032;-53
2022/02/12 03:37:49;;;;;;;25.58;7.22;;;;;;;6.05;100.00;103029.22;5036953;28;20289;-53
2022/02/12 03:40:16;;;;;;;23.15;7.63;;;;;;;5.97;100.00;103027.09;5043831;28;20073;-48
2022/02/12 03:42:41;;;;;;;16.50;6.60;;;;;;;5.89;100.00;103038.28;5045470;28;20045;-50
2022/02/12 03:45:08;;;;;;;18.27;6.80;;;;;;;5.96;100.00;103020.09;5036273;28;20041;-49
2022/02/12 03:47:33;;;;;;;19.23;7.30;;;;;;;5.79;100.00;103024.81;5048233;28;20120;-49
2022/02/12 03:49:59;;;;;;;21.40;6.70;;;;;;;5.69;100.00;103016.66;5038025;28;20071;-51
2022/02/12 03:52:24;;;;;;;18.17;7.50;;;;;;;5.89;100.00;103020.53;5050831;28;20037;-51
2022/02/12 03:54:49;;;;;;;17.97;6.73;;;;;;;6.52;100.00;103035.50;5038656;28;20041;-50
2022/02/12 03:57:15;;;;;;;20.90;7.33;;;;;;;6.97;100.00;103033.97;5048163;28;20041;-52
2022/02/12 03:59:40;;;;;;;29.47;7.47;;;;;;;6.52;100.00;103035.50;5040655;28;20053;-49
2022/02/12 04:02:06;;;;;;;21.57;6.50;;;;;;;6.24;100.00;103018.97;5027063;28;20041;-51
2022/02/12 04:04:32;;;;;;;17.13;6.90;;;;;;;6.29;100.00;103019.47;5042347;28;20278;-53
2022/02/12 04:06:58;;;;;;;35.60;7.90;;;;;;;5.62;100.00;103014.56;5037639;28;20041;-51
2022/02/12 04:09:23;;;;;;;25.48;7.07;;;;;;;5.95;100.00;103007.75;5047994;28;20069;-54
2022/02/12 04:11:48;;;;;;;15.23;6.03;;;;;;;6.21;100.00;102999.72;5036519;28;20044;-49
2022/02/12 04:14:14;;;;;;;23.47;8.30;;;;;;;5.89;100.00;103001.94;5043559;28;20095;-50
2022/02/12 04:16:39;;;;;;;24.70;7.43;;;;;;;5.70;100.00;102990.94;5025181;28;20045;-53
2022/02/12 04:19:05;;;;;;;30.08;7.57;;;;;;;5.73;100.00;102996.03;5036334;28;20033;-52
2022/02/12 04:21:30;;;;;;;16.83;5.93;;;;;;;6.15;100.00;102995.72;5048093;28;20446;-51
2022/02/12 04:23:56;;;;;;;24.45;7.00;;;;;;;5.88;100.00;102999.38;5037286;28;20036;-52
2022/02/12 04:26:21;;;;;;;23.07;7.50;;;;;;;5.69;100.00;102986.59;5042515;28;20045;-51
2022/02/12 04:28:47;;;;;;;22.45;6.90;;;;;;;5.33;100.00;102991.75;5044313;28;20056;-53
2022/02/12 04:31:13;;;;;;;27.70;6.50;;;;;;;5.57;100.00;102989.19;5051511;28;20037;-52
2022/02/12 04:33:39;;;;;;;;;;;;;;;5.71;100.00;102984.69;5048595;28;20032;-51
2022/02/12 04:36:05;;;;;;;17.80;6.27;;;;;;;6.06;100.00;102986.63;5038583;28;19920;-50
2022/02/12 04:38:30;;;;;;;30.97;9.13;;;;;;;5.74;100.00;102981.78;5023492;28;20045;-49
2022/02/12 04:40:55;;;;;;;25.07;6.60;;;;;;;5.78;100.00;102987.75;5044898;28;20037;-48
2022/02/12 04:43:21;;;;;;;24.73;6.83;;;;;;;5.65;100.00;102978.03;5034929;28;20112;-49
2022/02/12 04:45:46;;;;;;;20.40;6.57;;;;;;;5.58;100.00;102977.59;5047036;28;20037;-53
2022/02/12 04:48:12;;;;;;;27.63;7.43;;;;;;;5.51;100.00;102968.38;5021791;28;20083;-55
2022/02/12 04:50:37;;;;;;;18.13;6.33;;;;;;;5.76;100.00;102958.63;5051225;28;20041;-50
2022/02/12 04:53:03;;;;;;;22.53;7.03;;;;;;;5.89;100.00;102961.28;5036622;28;20037;-55
2022/02/12 04:55:28;;;;;;;20.63;7.07;;;;;;;5.51;100.00;102957.75;5047874;28;20033;-51
2022/02/12 04:57:54;;;;;;;23.73;7.77;;;;;;;5.63;100.00;102948.06;5036544;28;20033;-48
2022/02/12 05:00:19;;;;;;;25.10;7.55;;;;;;;5.84;100.00;102945.66;5042650;28;20041;-50
2022/02/12 05:02:46;;;;;;;32.13;8.20;;;;;;;5.76;100.00;102948.00;5043441;28;20040;-52
2022/02/12 05:05:12;;;;;;;24.85;8.45;;;;;;;5.45;100.00;102939.63;5038427;28;20041;-50
2022/02/12 05:07:42;;;;;;;25.92;7.15;;;;;;;5.57;100.00;102943.19;5051273;28;20095;-51
2022/02/12 05:10:08;;;;;;;25.10;8.73;;;;;;;5.39;100.00;102940.06;5041779;28;20056;-47
2022/02/12 05:12:34;;;;;;;23.10;6.78;;;;;;;5.30;100.00;102945.06;5043997;28;20041;-52
2022/02/12 05:15:00;;;;;;;25.13;7.53;;;;;;;5.25;100.00;102931.25;5048997;28;20037;-48
2022/02/12 05:17:25;;;;;;;29.92;7.25;;;;;;;5.15;100.00;102938.19;5037889;28;20051;-53
2022/02/12 05:19:52;;;;;;;32.58;8.35;;;;;;;4.83;100.00;102928.84;5049837;28;20413;-49
2022/02/12 05:22:17;;;;;;;42.83;9.83;;;;;;;4.90;100.00;102923.13;5042896;28;20033;-51
2022/02/12 05:24:43;;;;;;;32.93;8.07;;;;;;;4.86;100.00;102918.03;5042784;28;20041;-51
2022/02/12 05:27:09;;;;;;;21.53;7.30;;;;;;;4.96;100.00;102914.72;5049957;28;20036;-50
2022/02/12 05:29:35;;;;;;;19.02;7.85;;;;;;;4.83;100.00;102909.44;5037626;28;20051;-54
2022/02/12 05:32:02;;;;;;;23.65;7.70;;;;;;;5.06;100.00;102914.94;5054257;28;20075;-52
2022/02/12 05:34:27;;;;;;;29.90;8.38;;;;;;;4.83;100.00;102910.31;5054179;28;20048;-52
2022/02/12 05:36:52;;;;;;;24.67;8.40;;;;;;;4.95;100.00;102908.59;5041200;28;20038;-54
2022/02/12 05:39:18;;;;;;;23.57;6.97;;;;;;;4.87;100.00;102908.28;5050762;28;20280;-53
2022/02/12 05:41:44;;;;;;;24.07;6.50;;;;;;;4.94;100.00;102914.00;5038099;28;20037;-50
2022/02/12 05:44:09;;;;;;;27.95;7.80;;;;;;;4.93;100.00;102905.22;5047124;28;20029;-50
2022/02/12 05:46:35;;;;;;;21.73;6.97;;;;;;;5.08;100.00;102897.16;5044755;28;20043;-49
2022/02/12 05:49:01;;;;;;;24.65;8.63;;;;;;;5.08;100.00;102895.31;5040148;28;20025;-55
2022/02/12 05:51:30;;;;;;;24.15;8.35;;;;;;;5.04;100.00;102893.84;5050465;28;20117;-52
2022/02/12 05:53:58;;;;;;;25.58;8.02;;;;;;;5.12;100.00;102891.50;5039203;28;20047;-51
2022/02/12 05:56:23;;;;;;;21.67;7.43;;;;;;;5.11;100.00;102888.97;5046153;28;20112;-48
2022/02/12 05:58:49;;;;;;;18.50;7.10;;;;;;;4.97;100.00;102888.13;5046925;28;20071;-52
2022/02/12 06:01:14;;;;;;;23.85;6.82;;;;;;;4.83;100.00;102881.13;5038082;28;20369;-48
2022/02/12 06:03:40;;;;;;;27.03;7.87;;;;;;;4.98;100.00;102884.50;5050410;28;20029;-48
2022/02/12 06:06:05;;;;;;;27.60;8.93;;;;;;;4.94;100.00;102883.03;5040389;28;20278;-53
2022/02/12 06:08:32;;;;;;;23.08;7.32;;;;;;;4.58;100.00;102880.19;5043916;28;20041;-53
2022/02/12 06:10:59;;;;;;;30.00;8.07;;;;;;;4.89;100.00;102882.53;5033934;28;20049;-52
2022/02/12 06:13:24;;;;;;;28.65;8.73;;;;;;;4.70;100.00;102882.94;5050081;28;20029;-49
2022/02/12 06:15:50;;;;;;;23.85;7.68;;;;;;;4.85;100.00;102878.41;5036824;28;20489;-50
2022/02/12 06:18:16;;;;;;;22.75;7.72;;;;;;;4.74;100.00;102879.13;5045696;28;20513;-51
2022/02/12 06:20:41;;;;;;;29.43;9.40;;;;;;;5.09;100.00;102874.97;5045068;28;20048;-51
2022/02/12 06:23:07;;;;;;;19.63;7.25;;;;;;;4.81;100.00;102871.59;5038711;28;20061;-51
2022/02/12 06:25:32;;;;;;;24.97;9.23;;;;;;;4.87;100.00;102866.72;5049870;28;20041;-51
2022/02/12 06:27:58;;;;;;;25.67;8.80;;;;;;;4.67;100.00;102876.06;5038653;28;20269;-52
2022/02/12 06:30:23;;;;;;;28.00;7.72;;;;;;;4.53;100.00;102870.84;5044676;28;20095;-49
2022/02/12 06:32:49;;;;;;;21.80;8.83;;;;;;;4.64;100.00;102865.66;5045506;28;20041;-50
2022/02/12 06:35:14;;;;;;;23.63;7.87;;;;;;;4.95;100.00;102862.66;5037714;28;20365;-51
2022/02/12 06:37:39;;;;;;;21.77;7.50;;;;;;;4.81;100.00;102851.25;5049545;28;20123;-50
2022/02/12 06:40:05;;;;;;;27.73;10.77;;;;;;;4.65;100.00;102851.47;5021960;28;20067;-52
2022/02/12 06:42:31;;;;;;;23.27;9.75;;;;;;;4.77;100.00;102854.19;5043440;28;20116;-53
2022/02/12 06:44:56;;;;;;;21.63;7.70;;;;;;;4.47;100.00;102853.56;5046236;28;20037;-48
2022/02/12 06:47:22;;;;;;;27.80;9.60;;;;;;;4.41;100.00;102841.59;5036451;28;20041;-53
2022/02/12 06:49:47;;;;;;;22.37;8.00;;;;;;;4.61;100.00;102859.72;5052710;28;20041;-49
2022/02/12 06:52:12;;;;;;;21.77;7.83;;;;;;;4.72;100.00;102851.84;5045856;28;20034;-50
2022/02/12 06:54:38;;;;;;;29.37;9.47;;;;;;;4.68;100.00;102855.69;5043568;28;20094;-52
2022/02/12 06:57:03;;;;;;;26.43;9.00;;;;;;;4.90;100.00;102843.56;5038567;28;20040;-49
2022/02/12 06:59:29;;;;;;;19.37;8.77;;;;;;;4.79;100.00;102849.63;5049049;28;20040;-51
2022/02/12 07:01:54;;;;;;;23.92;9.20;;;;;;;4.71;100.00;102851.03;5037491;28;20029;-55
2022/02/12 07:04:20;;;;;;;20.50;9.30;;;;;;;4.65;100.00;102843.50;5044442;28;20037;-49
2022/02/12 07:06:45;;;;;;;34.17;9.30;;;;;;;5.07;100.00;102839.72;5044385;28;20443;-50
2022/02/12 07:09:11;;;;;;;26.88;10.25;;;;;;;4.78;100.00;102846.16;5019873;28;20033;-51
2022/02/12 07:11:37;;;;;;;26.87;10.47;;;;;;;4.62;100.00;102846.38;5016760;28;20037;-52
2022/02/12 07:14:03;;;;;;;25.25;8.50;;;;;;;4.76;100.00;102841.91;5046804;28;20041;-51
2022/02/12 07:16:28;;;;;;;27.45;9.82;;;;;;;4.91;100.00;102846.13;5041687;28;20057;-51
2022/02/12 07:18:54;;;;;;;26.03;8.23;;;;;;;4.76;100.00;102839.25;5039874;28;20049;-52
2022/02/12 07:21:19;;;;;;;23.70;9.48;;;;;;;4.97;100.00;102839.56;5048632;28;20028;-52
2022/02/12 07:23:45;;;;;;;24.17;9.57;;;;;;;4.66;100.00;102836.41;5049076;28;20037;-50
2022/02/12 07:26:11;;;;;;;21.37;8.53;;;;;;;4.76;100.00;102845.41;5039175;28;20272;-49
2022/02/12 07:28:40;;;;;;;23.70;8.68;;;;;;;4.81;100.00;102839.78;5041855;28;20446;-51
2022/02/12 07:31:07;;;;;;;22.70;8.98;;;;;;;4.57;100.00;102837.88;5046299;28;20040;-53
2022/02/12 07:33:32;;;;;;;22.90;8.25;;;;;;;4.91;100.00;102839.97;5035520;28;20056;-47
2022/02/12 07:35:58;;;;;;;20.60;8.63;;;;;;;5.26;100.00;102829.50;5047206;28;20108;-53
2022/02/12 07:38:23;;;;;;;21.97;8.13;;;;;;;4.86;100.00;102837.66;5040489;28;20029;-52
2022/02/12 07:40:48;;;;;;;19.53;6.90;;;;;;;4.56;100.00;102830.88;5040073;28;20072;-51
2022/02/12 07:43:14;;;;;;;27.37;8.00;;;;;;;4.45;100.00;102823.69;5047540;28;20277;-51
2022/02/12 07:45:39;;;;;;;23.60;7.80;;;;;;;4.66;100.00;102821.34;5035297;28;20033;-52
2022/02/12 07:48:05;;;;;;;18.70;6.77;;;;;;;4.86;100.00;102825.25;5028174;28;20039;-49
2022/02/12 07:50:30;;;;;;;20.02;7.80;;;;;;;5.16;100.00;102824.00;5041272;28;20412;-55
2022/02/12 07:52:56;;;;;;;17.45;7.63;;;;;;;5.33;100.00;102818.44;5039108;28;20072;-53
2022/02/12 07:55:22;;;;;;;21.37;6.10;;;;;;;5.48;100.00;102824.44;5048157;28;20029;-48
2022/02/12 07:57:47;;;;;;;19.50;6.43;;;;;;;5.12;100.00;102817.22;5035193;28;20059;-51
2022/02/12 08:00:16;;;;;;;26.48;7.70;;;;;;;5.48;100.00;102819.97;5045059;28;20037;-51
2022/02/12 08:02:42;;;;;;;19.67;7.65;;;;;;;5.25;100.00;102822.50;5042364;28;20032;-52
2022/02/12 08:05:08;;;;;;;18.13;6.32;;;;;;;5.32;100.00;102817.59;5055918;28;20033;-47
2022/02/12 08:07:37;;;;;;;27.70;8.18;;;;;;;5.40;100.00;102817.88;5035071;28;20041;-47
2022/02/12 08:11:22;;;;;;;23.77;7.25;;;;;;;4.91;100.00;102816.97;5048464;28;20033;-47
2022/02/12 08:12:51;;;;;;;26.48;7.95;;;;;;;5.29;100.00;102808.03;5043830;28;20049;-49
2022/02/12 08:15:17;;;;;;;17.00;6.40;;;;;;;5.54;100.00;102805.41;5036190;28;20040;-51
2022/02/12 08:17:43;;;;;;;18.15;7.70;;;;;;;5.16;100.00;102809.91;5048108;28;20059;-51
2022/02/12 08:20:09;;;;;;;18.70;6.65;;;;;;;5.63;100.00;102803.88;5037814;28;20029;-51
2022/02/12 08:22:35;;;;;;;21.73;7.35;;;;;;;5.65;100.00;102807.25;5024041;28;20083;-52
2022/02/12 08:25:01;;;;;;;23.77;7.32;;;;;;;5.97;100.00;102809.28;5044943;28;20041;-52
2022/02/12 08:27:28;;;;;;;23.88;6.75;;;;;;;5.99;100.00;102815.34;5034890;28;20032;-53
2022/02/12 08:29:54;;;;;;;26.88;7.25;;;;;;;6.15;100.00;102805.28;5051304;28;20045;-48
2022/02/12 08:32:21;;;;;;;15.88;7.47;;;;;;;6.17;100.00;102807.81;5051248;28;20079;-49
2022/02/12 08:34:48;;;;;;;25.35;8.55;;;;;;;6.45;100.00;102811.84;5051432;28;20053;-50
2022/02/12 08:37:14;;;;;;;21.50;7.18;;;;;;;6.60;100.00;102814.28;5036606;28;20025;-51
2022/02/12 08:39:39;;;;;;;25.85;6.93;;;;;;;6.48;100.00;102809.94;5049923;28;20119;-50
2022/02/12 08:42:05;;;;;;;17.60;6.33;;;;;;;6.65;100.00;102805.94;5041085;28;20069;-51
2022/02/12 08:44:31;;;;;;;27.42;9.48;;;;;;;6.97;100.00;102806.03;5046263;28;20266;-50
2022/02/12 08:46:56;;;;;;;25.53;6.93;;;;;;;7.05;100.00;102801.91;5047917;28;20517;-52
2022/02/12 08:49:22;;;;;;;17.13;6.60;;;;;;;7.55;100.00;102791.59;5039137;28;20041;-49
2022/02/12 08:51:47;;;;;;;17.50;6.27;;;;;;;8.34;100.00;102797.47;5051652;28;20036;-52
2022/02/12 08:54:13;;;;;;;18.08;7.32;;;;;;;8.70;nan;102800.59;5041324;28;20033;-56
2022/02/12 08:56:41;;;;;;;15.00;7.22;;;;;;;8.86;91.39;102802.75;5044944;28;20086;-49
2022/02/12 08:59:07;;;;;;;17.98;6.35;;;;;;;9.10;85.46;102795.41;5048877;28;20070;-51
2022/02/12 09:01:33;;;;;;;19.02;8.15;;;;;;;9.43;80.94;102796.00;5038371;28;20037;-55
2022/02/12 09:03:59;;;;;;;22.13;6.13;;;;;;;10.40;76.00;102796.91;5050073;28;20025;-55
2022/02/12 09:06:25;;;;;;;24.40;6.18;;;;;;;10.21;72.04;102794.25;5043176;28;20432;-56
2022/02/12 09:08:55;;;;;;;17.05;6.40;;;;;;;10.86;69.26;102794.28;5043185;28;20111;-53
2022/02/12 09:11:22;;;;;;;12.80;6.05;;;;;;;10.93;67.37;102793.69;5050449;28;20140;-53
2022/02/12 09:13:49;;;;;;;15.75;6.70;;;;;;;10.74;69.25;102796.31;5051344;28;20041;-51
2022/02/12 09:16:15;;;;;;;18.10;6.13;;;;;;;10.68;66.27;102794.25;5041161;28;20048;-53
2022/02/12 09:18:41;;;;;;;14.98;6.18;;;;;;;11.06;66.44;102788.81;5044182;28;20029;-49
2022/02/12 09:21:06;;;;;;;22.03;5.90;;;;;;;10.83;66.53;102785.69;5047957;28;20044;-53
2022/02/12 09:23:32;;;;;;;18.97;6.80;;;;;;;11.46;61.54;102784.03;5037291;28;20383;-54
2022/02/12 09:25:57;;;;;;;19.30;6.90;;;;;;;11.85;60.36;102788.19;5049726;28;20045;-52
2022/02/12 09:28:23;;;;;;;22.43;5.83;;;;;;;11.91;60.46;102772.31;5038201;28;20037;-51
2022/02/12 09:30:48;;;;;;;14.17;5.80;;;;;;;12.25;56.91;102773.41;5053688;28;20041;-49
2022/02/12 09:33:13;;;;;;;17.43;5.57;;;;;;;12.49;55.00;102763.78;5038804;28;20283;-54
2022/02/12 09:35:39;;;;;;;17.83;5.40;;;;;;;12.51;55.14;102761.78;5050165;28;20507;-53
2022/02/12 09:38:04;;;;;;;23.00;6.47;;;;;;;12.79;52.65;102766.09;5039226;28;20613;-53
2022/02/12 09:40:31;;;;;;;19.13;5.33;;;;;;;12.68;52.25;102761.88;5045506;28;20030;-55
2022/02/12 09:43:01;;;;;;;11.45;4.35;;;;;;;12.26;54.42;102761.66;5046124;28;20025;-50
2022/02/12 09:45:39;;;;;;;15.95;5.25;;;;;;;12.15;53.65;102746.69;5037022;28;20044;-54
2022/02/12 09:48:09;;;;;;;20.60;5.40;;;;;;;12.88;52.38;102751.69;5039056;28;20360;-49
2022/02/12 09:50:36;;;;;;;21.17;5.50;;;;;;;13.35;50.78;102736.81;5046542;28;20044;-50
2022/02/12 09:53:02;;;;;;;16.83;4.93;;;;;;;14.14;47.96;102733.56;5053223;28;20042;-51
2022/02/12 09:55:29;;;;;;;12.67;4.73;;;;;;;13.98;48.18;102731.75;5037014;28;20789;-53
2022/02/12 09:57:54;;;;;;;17.80;5.37;;;;;;;13.76;47.89;102735.97;5036233;28;20048;-50
2022/02/12 10:00:20;;;;;;;21.40;5.10;;;;;;;14.42;47.42;102729.59;5046079;28;20274;-50
2022/02/12 10:02:46;;;;;;;22.73;5.28;;;;;;;14.30;47.38;102726.41;5044155;28;20025;-49
2022/02/12 10:05:19;;;;;;;;;;;;;;;13.88;46.20;102725.72;5039462;28;20037;-50
2022/02/12 10:07:46;;;;;;;18.83;4.67;;;;;;;13.93;46.17;102711.75;5050160;28;19943;-50
2022/02/12 10:10:14;;;;;;;17.60;4.40;;;;;;;14.03;46.62;102702.47;5039617;28;20281;-52
2022/02/12 10:12:39;;;;;;;11.93;4.07;;;;;;;14.89;44.92;102711.69;5043265;28;20290;-54
2022/02/12 10:15:11;;;;;;;22.33;5.50;;;;;;;13.53;45.71;102708.97;5046605;28;20372;-51
2022/02/12 10:17:36;;;;;;;16.97;4.63;;;;;;;13.09;48.13;102705.56;5036484;28;20049;-54
2022/02/12 10:20:02;;;;;;;11.03;4.40;;;;;;;13.72;46.08;102723.91;5053293;28;20324;-49
2022/02/12 10:22:27;;;;;;;14.43;4.40;;;;;;;14.41;44.08;102712.59;5044799;28;20025;-49
2022/02/12 10:24:55;;;;;;;14.43;5.23;;;;;;;15.19;43.25;102722.59;5038077;28;20538;-51
2022/02/12 10:27:23;;;;;;;17.17;4.80;;;;;;;15.97;41.63;102702.69;5032861;28;20457;-54
2022/02/12 10:29:49;;;;;;;12.97;3.70;;;;;;;15.98;39.61;102697.09;5035685;28;20271;-51
2022/02/12 10:32:17;;;;;;;16.13;4.25;;;;;;;15.84;40.17;102709.53;5046692;28;20750;-50
2022/02/12 10:34:43;;;;;;;12.73;4.40;;;;;;;16.41;39.65;102688.31;5042714;28;20044;-52
2022/02/12 10:37:11;;;;;;;11.45;3.72;;;;;;;15.24;40.16;102690.56;5038715;28;20284;-55
2022/02/12 10:39:51;;;;;;;16.60;4.40;;;;;;;15.20;40.99;102695.47;5048761;28;20492;-51
2022/02/12 10:42:17;;;;;;;9.40;3.90;;;;;;;15.38;40.03;102672.75;5038651;28;20326;-54
2022/02/12 10:44:45;;;;;;;13.15;4.40;;;;;;;15.38;40.36;102669.22;5042204;28;20444;-51
2022/02/12 10:47:13;;;;;;;17.57;4.17;;;;;;;16.40;39.33;102673.16;5046625;28;20115;-48
2022/02/12 10:49:42;;;;;;;15.27;4.77;;;;;;;17.16;38.63;102673.72;5052246;28;20284;-53
2022/02/12 10:52:08;;;;;;;13.50;4.30;;;;;;;16.68;38.02;102674.25;5046810;28;20274;-53
2022/02/12 10:54:49;;;;;;;13.35;4.45;;;;;;;16.63;37.62;102677.56;5040933;28;20809;-55
2022/02/12 10:57:16;;;;;;;12.30;3.90;;;;;;;17.02;36.68;102680.88;5037499;28;20045;-54
2022/02/12 10:59:43;;;;;;;10.10;4.00;;;;;;;17.28;37.03;102671.34;5031274;28;20286;-52
2022/02/12 11:02:11;;;;;;;11.63;3.67;;;;;;;16.45;37.45;102673.41;5037319;28;20281;-52
2022/02/12 11:04:40;;;;;;;10.17;3.20;;;;;;;17.03;36.40;102664.47;5042999;28;20750;-51
2022/02/12 11:07:07;;;;;;;13.63;4.20;;;;;;;16.42;37.79;102667.53;5045772;28;20316;-51
2022/02/12 11:09:33;;;;;;;12.70;3.73;;;;;;;17.20;36.46;102670.44;5051501;28;20285;-53
2022/02/12 11:12:04;;;;;;;12.33;4.00;;;;;;;16.80;35.86;102671.91;5035911;28;20269;-53
2022/02/12 11:14:33;;;;;;;13.57;3.70;;;;;;;16.69;35.59;102674.09;5044160;28;20041;-53
2022/02/12 11:17:16;;;;;;;11.00;4.10;;;;;;;16.88;35.78;102656.41;5044206;28;20281;-53
2022/02/12 11:19:44;;;;;;;19.07;4.60;;;;;;;17.96;35.33;102646.38;5035667;28;20278;-52